Time;durP1;ratioP1;P1;durP2;ratioP2;P2;SDS_P1;SDS_P2;PMS_P1;PMS_P2;Temp;Humidity;BMP_temperature;BMP_pressure;BME280_temperature;BME280_humidity;BME280_pressure;Samples;Min_cycle;Max_cycle;Signal;HPM_P1;HPM_P2
2023/09/05 00:00:19;;;;;;;5.40;4.90;;;;;;;18.31;100.00;95033.16;5092914;28;20477;-77
2023/09/05 00:02:48;;;;;;;6.83;5.13;;;;;;;18.29;100.00;95032.50;5092464;28;20443;-77
2023/09/05 00:05:18;;;;;;;7.43;5.50;;;;;;;18.32;100.00;95018.03;5095942;28;20522;-77
2023/09/05 00:07:45;;;;;;;6.13;5.60;;;;;;;18.33;100.00;95011.72;5096112;28;20494;-77
2023/09/05 00:10:13;;;;;;;10.13;5.37;;;;;;;18.32;100.00;95013.56;5096090;28;20442;-77
2023/09/05 00:12:42;;;;;;;5.10;4.70;;;;;;;18.34;100.00;95013.38;5096186;28;20449;-77
2023/09/05 00:15:11;;;;;;;6.40;5.80;;;;;;;18.02;100.00;95020.50;5044078;28;20438;-77
2023/09/05 00:17:38;;;;;;;7.43;4.80;;;;;;;17.71;100.00;95004.53;5096280;28;20449;-77
2023/09/05 00:20:06;;;;;;;5.80;5.30;;;;;;;17.86;100.00;94996.66;5095690;28;20798;-77
2023/09/05 00:22:33;;;;;;;5.10;4.60;;;;;;;17.92;100.00;95015.38;5044100;28;20444;-77
2023/09/05 00:24:59;;;;;;;5.20;4.70;;;;;;;17.83;100.00;95016.41;5043909;28;20444;-77
2023/09/05 00:27:26;;;;;;;5.80;5.30;;;;;;;17.90;100.00;95012.06;5095884;28;20492;-77
2023/09/05 00:29:56;;;;;;;5.70;5.20;;;;;;;17.94;100.00;95013.41;5096048;28;20449;-77
2023/09/05 00:32:23;;;;;;;7.33;5.37;;;;;;;18.02;100.00;94996.63;5096017;28;20497;-77
2023/09/05 00:34:49;;;;;;;6.47;5.07;;;;;;;18.06;100.00;94994.44;5095727;28;20878;-77
2023/09/05 00:37:22;;;;;;;7.43;4.60;;;;;;;18.06;100.00;94994.44;5095614;28;20453;-77
2023/09/05 00:39:49;;;;;;;6.87;5.07;;;;;;;18.07;100.00;94999.56;5095513;28;20445;-77
2023/09/05 00:42:15;;;;;;;10.63;5.50;;;;;;;18.12;100.00;94996.38;5095689;28;20924;-77
2023/09/05 00:44:43;;;;;;;5.20;4.80;;;;;;;18.15;100.00;95009.31;5095411;28;20451;-77
2023/09/05 00:47:12;;;;;;;6.27;5.13;;;;;;;18.16;100.00;95003.84;5095314;28;20485;-77
2023/09/05 00:49:42;;;;;;;5.60;5.10;;;;;;;18.18;100.00;94998.34;5095519;28;20481;-77
2023/09/05 00:52:11;;;;;;;5.40;4.40;;;;;;;18.19;100.00;94997.34;5095116;28;20479;-77
2023/09/05 00:54:40;;;;;;;4.93;4.50;;;;;;;18.15;100.00;94994.22;5095529;28;20447;-77
2023/09/05 00:57:07;;;;;;;9.00;4.53;;;;;;;18.16;100.00;94995.03;5095271;28;20454;-77
2023/09/05 00:59:34;;;;;;;4.60;4.20;;;;;;;18.16;100.00;94992.38;5095293;28;20448;-76
2023/09/05 01:02:01;;;;;;;4.07;3.47;;;;;;;18.16;100.00;95005.66;5095130;28;20772;-77
2023/09/05 01:04:32;;;;;;;5.00;4.50;;;;;;;18.15;100.00;95004.00;5095425;28;20437;-76
2023/09/05 01:07:04;;;;;;;4.20;3.90;;;;;;;18.11;100.00;95000.88;5095137;28;21075;-77
2023/09/05 01:09:40;;;;;;;6.13;3.57;;;;;;;18.06;100.00;94999.75;5095134;28;20779;-77
2023/09/05 01:12:08;;;;;;;6.47;3.57;;;;;;;18.06;100.00;95000.56;5094882;28;20437;-77
2023/09/05 01:14:35;;;;;;;3.73;3.43;;;;;;;18.06;100.00;95005.06;5094747;28;20650;-77
2023/09/05 01:17:02;;;;;;;4.27;3.50;;;;;;;18.07;100.00;95004.06;5095167;28;20448;-77
2023/09/05 01:19:31;;;;;;;3.97;3.17;;;;;;;18.05;100.00;95009.53;5095439;28;20445;-77
2023/09/05 01:22:12;;;;;;;3.30;2.70;;;;;;;18.02;100.00;95009.88;5095133;28;20443;-77
2023/09/05 01:24:40;;;;;;;3.30;3.00;;;;;;;18.06;100.00;95011.19;5095233;28;20538;-77
2023/09/05 01:27:08;;;;;;;3.60;3.30;;;;;;;18.08;100.00;95006.53;5095086;28;20492;-77
2023/09/05 01:29:38;;;;;;;3.23;3.03;;;;;;;18.11;100.00;94992.91;5095110;28;20443;-77
2023/09/05 01:32:09;;;;;;;7.23;2.80;;;;;;;18.16;100.00;94992.38;5094905;28;21148;-77
2023/09/05 01:34:35;;;;;;;4.90;2.80;;;;;;;18.22;100.00;94989.06;5094890;28;20487;-77
2023/09/05 01:37:02;;;;;;;3.00;2.80;;;;;;;18.23;100.00;94983.56;5094814;28;20443;-77
2023/09/05 01:39:29;;;;;;;3.43;2.90;;;;;;;18.26;100.00;94991.19;5095329;28;20441;-77
2023/09/05 01:41:59;;;;;;;3.43;3.13;;;;;;;18.28;100.00;94993.66;5095605;28;20450;-77
2023/09/05 01:44:26;;;;;;;2.83;2.63;;;;;;;18.29;100.00;94992.66;5094841;28;20529;-77
2023/09/05 01:46:53;;;;;;;4.20;2.73;;;;;;;18.25;100.00;94988.69;5094318;28;20480;-77
2023/09/05 01:49:19;;;;;;;3.33;3.03;;;;;;;18.25;100.00;94986.03;5094933;28;20452;-77
2023/09/05 01:51:46;;;;;;;4.37;3.00;;;;;;;18.23;100.00;94982.75;5094961;28;20540;-77
2023/09/05 01:54:13;;;;;;;2.70;2.50;;;;;;;18.15;100.00;94977.44;5095914;28;20794;-77
2023/09/05 01:56:40;;;;;;;3.10;2.90;;;;;;;18.16;100.00;94979.09;5096583;28;20531;-77
2023/09/05 01:59:08;;;;;;;2.90;2.70;;;;;;;18.07;100.00;94990.78;5095799;28;20436;-78
2023/09/05 02:01:35;;;;;;;2.73;2.53;;;;;;;18.10;100.00;94991.25;5043377;28;20445;-77
2023/09/05 02:04:02;;;;;;;3.00;2.80;;;;;;;18.11;100.00;94998.22;5042876;28;20944;-77
2023/09/05 02:06:29;;;;;;;3.43;3.20;;;;;;;18.08;100.00;94987.13;5094564;28;20440;-77
2023/09/05 02:08:55;;;;;;;3.60;3.30;;;;;;;18.06;100.00;94984.63;5094155;28;20824;-77
2023/09/05 02:11:22;;;;;;;3.83;3.47;;;;;;;18.06;100.00;94991.78;5094347;28;20443;-77
2023/09/05 02:13:49;;;;;;;3.90;3.57;;;;;;;18.04;100.00;94991.94;5094227;28;20440;-77
2023/09/05 02:16:19;;;;;;;3.57;3.27;;;;;;;17.83;100.00;95010.28;5094130;28;20448;-77
2023/09/05 02:18:47;;;;;;;4.00;3.70;;;;;;;17.75;100.00;95008.50;5093501;28;20525;-77
2023/09/05 02:21:14;;;;;;;5.30;3.73;;;;;;;17.83;100.00;95018.25;5093254;28;20494;-77
2023/09/05 02:23:41;;;;;;;4.80;4.40;;;;;;;17.88;100.00;95014.06;5041171;28;20435;-77
2023/09/05 02:26:09;;;;;;;4.60;4.13;;;;;;;17.95;100.00;95019.56;5092379;28;20463;-77
2023/09/05 02:28:37;;;;;;;5.80;4.00;;;;;;;18.00;100.00;95016.38;5093782;28;20856;-77
2023/09/05 02:31:06;;;;;;;5.23;4.73;;;;;;;18.02;100.00;95009.06;5093656;28;20445;-77
2023/09/05 02:33:37;;;;;;;5.17;4.40;;;;;;;18.03;100.00;95005.41;5093450;28;20614;-77
2023/09/05 02:36:15;;;;;;;4.97;4.57;;;;;;;18.05;100.00;95008.72;5093487;28;20774;-77
2023/09/05 02:38:42;;;;;;;7.43;5.07;;;;;;;18.07;100.00;95012.03;5093410;28;20441;-77
2023/09/05 02:41:11;;;;;;;7.30;5.33;;;;;;;18.09;100.00;95005.53;5093612;28;20440;-77
2023/09/05 02:43:38;;;;;;;5.40;4.90;;;;;;;18.07;100.00;95004.88;5093617;28;20476;-77
2023/09/05 02:46:06;;;;;;;5.47;5.07;;;;;;;18.04;100.00;94997.25;5093466;28;20457;-77
2023/09/05 02:48:36;;;;;;;6.97;4.67;;;;;;;18.06;100.00;95005.88;5093145;28;20581;-77
2023/09/05 02:51:03;;;;;;;6.30;5.30;;;;;;;18.05;100.00;95014.84;5093157;28;20453;-77
2023/09/05 02:53:31;;;;;;;5.60;5.10;;;;;;;18.06;100.00;95005.06;5057140;28;20471;-77
2023/09/05 02:55:58;;;;;;;12.00;5.83;;;;;;;18.06;100.00;95010.38;5093091;28;20451;-77
2023/09/05 02:58:26;;;;;;;5.97;5.47;;;;;;;18.03;100.00;95011.53;5092729;28;20443;-77
2023/09/05 03:00:58;;;;;;;5.90;5.40;;;;;;;18.01;100.00;95005.59;5092941;28;20450;-77
2023/09/05 03:03:25;;;;;;;8.00;6.13;;;;;;;17.99;100.00;95004.09;5092908;28;20453;-77
2023/09/05 03:05:53;;;;;;;6.37;5.77;;;;;;;17.97;100.00;95006.94;5092949;28;20441;-77
2023/09/05 03:08:20;;;;;;;6.03;5.20;;;;;;;17.91;100.00;95008.41;5092984;28;20874;-77
2023/09/05 03:10:50;;;;;;;7.30;5.97;;;;;;;17.87;100.00;95008.94;5092885;28;20447;-77
2023/09/05 03:13:16;;;;;;;6.97;6.27;;;;;;;17.82;100.00;95001.50;5040292;28;20435;-77
2023/09/05 03:15:43;;;;;;;8.00;7.20;;;;;;;17.81;100.00;95009.63;5093760;28;20445;-76
2023/09/05 03:18:10;;;;;;;8.13;7.33;;;;;;;17.72;100.00;95006.19;5093946;28;20454;-77
2023/09/05 03:20:37;;;;;;;7.47;6.03;;;;;;;17.65;100.00;95005.19;5093821;28;20790;-77
2023/09/05 03:23:05;;;;;;;9.60;6.47;;;;;;;17.59;100.00;95025.25;5092931;28;20451;-77
2023/09/05 03:25:32;;;;;;;8.10;7.30;;;;;;;17.53;100.00;95030.41;5093221;28;20443;-77
2023/09/05 03:27:58;;;;;;;8.07;7.37;;;;;;;17.46;100.00;95030.25;5058193;28;20995;-76
2023/09/05 03:30:25;;;;;;;12.43;7.73;;;;;;;17.43;100.00;95035.91;5093667;28;21162;-77
2023/09/05 03:32:52;;;;;;;10.00;7.30;;;;;;;17.42;100.00;95044.03;5093578;28;20441;-76
2023/09/05 03:35:19;;;;;;;8.70;7.77;;;;;;;17.39;100.00;95052.34;5092787;28;20440;-77
2023/09/05 03:37:46;;;;;;;8.37;7.57;;;;;;;17.35;100.00;95038.59;5093998;28;20932;-77
2023/09/05 03:40:14;;;;;;;9.87;8.83;;;;;;;17.27;100.00;95042.03;5095912;28;20443;-78
2023/09/05 03:42:43;;;;;;;9.47;8.57;;;;;;;17.25;100.00;95041.38;5096619;28;20462;-77
2023/09/05 03:45:10;;;;;;;9.60;7.63;;;;;;;17.18;100.00;95031.63;5045314;28;20770;-77
2023/09/05 03:47:37;;;;;;;10.00;7.37;;;;;;;17.21;100.00;95039.25;5096802;28;20487;-77
2023/09/05 03:50:05;;;;;;;10.13;8.37;;;;;;;17.20;100.00;95032.28;5096594;28;20444;-77
2023/09/05 03:52:32;;;;;;;9.57;8.67;;;;;;;17.20;100.00;95030.47;5096775;28;20493;-77
2023/09/05 03:54:59;;;;;;;10.93;8.73;;;;;;;17.20;100.00;95030.47;5096849;28;20804;-77
2023/09/05 03:57:27;;;;;;;10.50;9.00;;;;;;;17.19;100.00;95027.97;5097253;28;20455;-77
2023/09/05 03:59:54;;;;;;;10.07;9.07;;;;;;;17.18;100.00;95021.84;5096625;28;20440;-78
2023/09/05 04:02:21;;;;;;;11.27;10.17;;;;;;;17.16;100.00;95025.66;5096715;28;20796;-77
2023/09/05 04:04:47;;;;;;;11.20;10.10;;;;;;;17.15;100.00;95024.00;5096824;28;20455;-77
2023/09/05 04:07:14;;;;;;;14.33;11.40;;;;;;;17.17;100.00;95022.84;5096713;28;20452;-77
2023/09/05 04:09:41;;;;;;;12.60;10.00;;;;;;;17.13;100.00;95026.81;5096820;28;20447;-76
2023/09/05 04:12:08;;;;;;;14.10;10.33;;;;;;;17.14;100.00;95025.81;5095909;28;20954;-76
2023/09/05 04:14:36;;;;;;;11.00;9.90;;;;;;;17.14;100.00;95028.47;5060776;28;20822;-77
2023/09/05 04:17:03;;;;;;;15.80;9.47;;;;;;;17.43;100.00;95035.91;5095817;28;20804;-77
2023/09/05 04:19:30;;;;;;;12.10;9.27;;;;;;;17.98;100.00;95037.78;5096041;28;20519;-77
2023/09/05 04:21:58;;;;;;;9.67;8.67;;;;;;;18.56;100.00;95050.63;5096099;28;20459;-76
2023/09/05 04:24:28;;;;;;;10.60;9.50;;;;;;;19.07;96.61;95058.13;5095777;28;20451;-76
2023/09/05 04:26:54;;;;;;;8.97;8.07;;;;;;;19.07;94.29;95053.63;5087255;28;20999;-76
2023/09/05 04:29:21;;;;;;;9.93;8.93;;;;;;;19.11;94.23;95054.94;5095524;28;20488;-76
2023/09/05 04:31:49;;;;;;;9.73;8.83;;;;;;;19.21;93.97;95048.53;5083282;28;20441;-76
2023/09/05 04:34:17;;;;;;;10.37;7.93;;;;;;;19.38;94.39;95048.25;5075178;28;20448;-77
2023/09/05 04:36:43;;;;;;;10.97;9.87;;;;;;;19.54;93.37;95041.13;5037339;28;20440;-76
2023/09/05 04:39:10;;;;;;;11.70;10.60;;;;;;;19.51;91.44;95042.28;5095467;28;20510;-77
2023/09/05 04:41:37;;;;;;;13.97;11.20;;;;;;;19.44;92.07;95050.19;5095837;28;20453;-77
2023/09/05 04:44:04;;;;;;;13.03;11.50;;;;;;;19.30;92.69;95050.94;5095686;28;20456;-77
2023/09/05 04:46:37;;;;;;;13.27;12.13;;;;;;;19.16;93.82;95041.94;5095620;28;20442;-77
2023/09/05 04:49:05;;;;;;;19.00;17.17;;;;;;;18.93;94.95;95046.44;5095036;28;20528;-77
2023/09/05 04:51:32;;;;;;;16.43;14.83;;;;;;;18.75;95.90;95044.03;5096401;28;20454;-77
2023/09/05 04:53:59;;;;;;;17.20;15.23;;;;;;;18.65;97.02;95032.81;5043450;28;20463;-76
2023/09/05 04:56:26;;;;;;;15.40;13.00;;;;;;;18.61;98.24;95030.66;5095320;28;20437;-76
2023/09/05 04:58:52;;;;;;;15.70;13.33;;;;;;;18.55;99.26;95033.03;5096013;28;20490;-76
2023/09/05 05:01:19;;;;;;;19.27;15.10;;;;;;;18.48;100.00;95029.41;5095339;28;20839;-77
2023/09/05 05:03:46;;;;;;;17.10;15.30;;;;;;;18.41;100.00;95041.72;5095432;28;20452;-76
2023/09/05 05:06:14;;;;;;;19.37;15.73;;;;;;;18.32;100.00;95032.16;5042928;28;20437;-77
2023/09/05 05:08:41;;;;;;;16.03;13.50;;;;;;;18.23;100.00;95043.84;5095166;28;20813;-76
2023/09/05 05:11:08;;;;;;;14.17;12.70;;;;;;;17.87;100.00;95043.44;5095023;28;20443;-77
2023/09/05 05:13:35;;;;;;;16.77;13.30;;;;;;;17.85;100.00;95042.78;5094614;28;20441;-77
2023/09/05 05:16:01;;;;;;;13.47;12.07;;;;;;;17.83;100.00;95048.28;5095140;28;20480;-77
2023/09/05 05:18:28;;;;;;;16.73;14.17;;;;;;;17.86;100.00;95049.75;5095115;28;20433;-77
2023/09/05 05:20:55;;;;;;;16.00;14.30;;;;;;;17.92;100.00;95047.25;5095308;28;20467;-76
2023/09/05 05:23:23;;;;;;;14.10;12.63;;;;;;;17.92;100.00;95049.91;5094979;28;20442;-77
2023/09/05 05:25:50;;;;;;;15.10;13.53;;;;;;;17.84;100.00;95034.00;5094588;28;20445;-76
2023/09/05 05:28:17;;;;;;;14.50;13.00;;;;;;;18.01;100.00;95049.91;5095281;28;20489;-77
2023/09/05 05:30:44;;;;;;;20.13;13.60;;;;;;;18.07;100.00;95046.53;5095960;28;20929;-77
2023/09/05 05:33:11;;;;;;;16.90;13.47;;;;;;;18.11;100.00;95039.88;5095345;28;20450;-77
2023/09/05 05:35:37;;;;;;;15.90;14.30;;;;;;;18.03;100.00;95053.19;5043610;28;20444;-77
2023/09/05 05:38:04;;;;;;;16.57;14.30;;;;;;;17.92;100.00;95046.41;5094414;28;20445;-76
2023/09/05 05:40:33;;;;;;;16.37;13.30;;;;;;;17.91;100.00;95056.22;5094052;28;20440;-77
2023/09/05 05:42:59;;;;;;;15.63;13.90;;;;;;;17.91;100.00;95061.53;5093969;28;20434;-76
2023/09/05 05:45:26;;;;;;;21.77;14.63;;;;;;;17.89;100.00;95063.53;5095669;28;20451;-77
2023/09/05 05:47:55;;;;;;;18.40;15.60;;;;;;;17.94;100.00;95060.38;5042487;28;20450;-76
2023/09/05 05:50:22;;;;;;;20.70;13.77;;;;;;;17.91;100.00;95060.69;5094277;28;20443;-76
2023/09/05 05:52:49;;;;;;;20.27;14.70;;;;;;;17.86;100.00;95063.03;5094221;28;20476;-76
2023/09/05 05:55:16;;;;;;;16.07;14.33;;;;;;;17.87;100.00;95067.34;5042133;28;20447;-76
2023/09/05 05:57:44;;;;;;;21.90;14.37;;;;;;;17.86;100.00;95071.00;5059073;28;20447;-76
2023/09/05 06:00:11;;;;;;;15.90;13.73;;;;;;;17.88;100.00;95055.72;5096046;28;20439;-77
2023/09/05 06:02:38;;;;;;;15.67;13.20;;;;;;;17.91;100.00;95069.47;5043556;28;20449;-76
2023/09/05 06:05:07;;;;;;;17.80;12.70;;;;;;;17.92;100.00;95060.53;5094634;28;20449;-77
2023/09/05 06:07:34;;;;;;;20.60;14.90;;;;;;;17.96;100.00;95061.03;5094829;28;20447;-76
2023/09/05 06:10:01;;;;;;;20.07;13.73;;;;;;;17.95;100.00;95067.34;5094758;28;20498;-77
2023/09/05 06:12:28;;;;;;;21.77;15.37;;;;;;;18.01;100.00;95071.13;5095488;28;20836;-76
2023/09/05 06:14:56;;;;;;;22.80;15.70;;;;;;;18.02;100.00;95067.47;5095472;28;20441;-77
2023/09/05 06:17:23;;;;;;;24.27;15.33;;;;;;;18.05;100.00;95078.59;5095300;28;20451;-76
2023/09/05 06:19:50;;;;;;;22.73;17.37;;;;;;;18.09;100.00;95063.97;5094637;28;20440;-76
2023/09/05 06:22:17;;;;;;;20.20;16.07;;;;;;;18.13;100.00;95070.59;5084020;28;20445;-77
2023/09/05 06:24:43;;;;;;;17.00;15.30;;;;;;;17.97;100.00;95065.34;5050832;28;20955;-75
2023/09/05 06:27:10;;;;;;;20.77;15.00;;;;;;;18.00;100.00;95058.84;5073728;28;20445;-76
2023/09/05 06:29:37;;;;;;;18.73;14.83;;;;;;;18.07;100.00;95060.66;5073505;28;20486;-77
2023/09/05 06:32:06;;;;;;;18.60;15.13;;;;;;;18.17;100.00;95065.75;5021712;28;20450;-76
2023/09/05 06:34:33;;;;;;;21.73;16.20;;;;;;;18.20;100.00;95066.22;5073418;28;20817;-77
2023/09/05 06:37:01;;;;;;;18.60;16.17;;;;;;;18.23;100.00;95073.06;5073985;28;20924;-77
2023/09/05 06:39:28;;;;;;;21.37;17.00;;;;;;;18.25;100.00;95081.69;5073687;28;20945;-78
2023/09/05 06:41:54;;;;;;;34.23;17.83;;;;;;;18.26;100.00;95078.84;5073800;28;20441;-78
2023/09/05 06:44:21;;;;;;;19.17;16.33;;;;;;;18.42;100.00;95091.22;5077921;28;21280;-78
2023/09/05 06:46:48;;;;;;;16.97;15.20;;;;;;;18.49;100.00;95084.19;5076527;28;20446;-77
2023/09/05 06:49:16;;;;;;;18.90;16.43;;;;;;;18.50;100.00;95093.00;5093061;28;20478;-77
2023/09/05 06:51:43;;;;;;;20.97;17.07;;;;;;;18.44;100.00;95089.22;5084136;28;20813;-77
2023/09/05 06:54:10;;;;;;;24.50;16.20;;;;;;;18.44;100.00;95091.88;5092824;28;20445;-76
2023/09/05 06:56:36;;;;;;;16.80;15.20;;;;;;;18.41;100.00;95078.94;5079256;28;20508;-77
2023/09/05 06:59:04;;;;;;;16.23;14.37;;;;;;;18.43;100.00;95084.91;5092389;28;20481;-78
2023/09/05 07:01:33;;;;;;;21.27;14.83;;;;;;;18.61;100.00;95082.00;5091618;28;20515;-77
2023/09/05 07:04:00;;;;;;;25.03;15.20;;;;;;;18.82;100.00;95100.03;5080768;28;20521;-77
2023/09/05 07:06:28;;;;;;;17.83;15.27;;;;;;;18.92;100.00;95102.44;5093304;28;20446;-77
2023/09/05 07:08:55;;;;;;;15.73;13.63;;;;;;;18.90;100.00;95115.94;5037356;28;20483;-77
2023/09/05 07:11:22;;;;;;;22.13;13.97;;;;;;;18.95;100.00;95112.75;5074401;28;20467;-77
2023/09/05 07:13:49;;;;;;;15.73;14.20;;;;;;;19.02;100.00;95114.50;5091915;28;20941;-77
2023/09/05 07:16:16;;;;;;;15.97;13.83;;;;;;;18.93;99.94;95117.41;5041420;28;20442;-77
2023/09/05 07:18:43;;;;;;;18.20;14.33;;;;;;;18.90;98.59;95120.41;5028590;28;20486;-77
2023/09/05 07:21:10;;;;;;;15.57;13.87;;;;;;;18.78;98.37;95127.94;5093002;28;20447;-77
2023/09/05 07:23:38;;;;;;;16.23;14.30;;;;;;;18.60;100.00;95122.03;5079038;28;20932;-77
2023/09/05 07:26:05;;;;;;;13.60;12.30;;;;;;;18.35;100.00;95116.00;5092476;28;20455;-78
2023/09/05 07:28:32;;;;;;;15.73;12.30;;;;;;;18.28;100.00;95126.50;5090228;28;20822;-77
2023/09/05 07:30:59;;;;;;;14.47;12.20;;;;;;;18.23;100.00;95134.97;5091561;28;20808;-77
2023/09/05 07:33:26;;;;;;;13.73;10.70;;;;;;;18.05;100.00;95137.00;5079091;28;20460;-77
2023/09/05 07:35:52;;;;;;;13.53;12.13;;;;;;;17.91;100.00;95146.47;5092335;28;20446;-77
2023/09/05 07:38:21;;;;;;;13.63;11.30;;;;;;;17.89;100.00;95145.81;5088176;28;20475;-77
2023/09/05 07:40:49;;;;;;;12.77;11.47;;;;;;;17.95;100.00;95145.19;5057072;28;20438;-77
2023/09/05 07:43:16;;;;;;;13.77;11.33;;;;;;;18.13;100.00;95150.25;5036679;28;20460;-77
2023/09/05 07:45:43;;;;;;;15.20;11.87;;;;;;;18.17;100.00;95156.88;5092337;28;20792;-77
2023/09/05 07:48:09;;;;;;;13.57;12.27;;;;;;;18.03;100.00;95148.81;5092185;28;20560;-77
2023/09/05 07:50:36;;;;;;;15.40;11.90;;;;;;;18.08;100.00;95147.28;5092527;28;20540;-77
2023/09/05 07:53:03;;;;;;;15.33;13.83;;;;;;;18.19;100.00;95138.13;5091932;28;20477;-77
2023/09/05 07:55:30;;;;;;;13.27;12.07;;;;;;;18.17;100.00;95140.13;5092341;28;20438;-77
2023/09/05 07:57:58;;;;;;;12.57;11.43;;;;;;;18.19;100.00;95138.13;5056383;28;20444;-77
2023/09/05 08:00:27;;;;;;;13.80;12.50;;;;;;;18.19;100.00;95156.72;5092200;28;20444;-77
2023/09/05 08:02:54;;;;;;;12.63;11.50;;;;;;;18.39;100.00;95152.69;5092382;28;20507;-77
2023/09/05 08:05:21;;;;;;;13.07;11.70;;;;;;;18.38;100.00;95150.19;5092170;28;20441;-77
2023/09/05 08:07:48;;;;;;;14.67;11.40;;;;;;;18.46;99.52;95145.66;5092177;28;20448;-77
2023/09/05 08:10:15;;;;;;;16.23;12.00;;;;;;;18.49;97.59;95144.50;5092158;28;20967;-77
2023/09/05 08:12:42;;;;;;;12.40;11.17;;;;;;;18.59;99.55;95147.78;5039487;28;20428;-77
2023/09/05 08:15:11;;;;;;;14.20;12.40;;;;;;;18.68;98.69;95154.75;5093117;28;20494;-77
2023/09/05 08:17:38;;;;;;;13.10;11.90;;;;;;;18.81;97.89;95154.22;5093027;28;20438;-78
2023/09/05 08:20:06;;;;;;;11.93;10.80;;;;;;;18.93;97.40;95147.50;5092539;28;20444;-77
2023/09/05 08:22:33;;;;;;;14.13;11.70;;;;;;;19.19;96.28;95152.50;5039893;28;20926;-77
2023/09/05 08:25:00;;;;;;;13.83;10.97;;;;;;;19.19;95.83;95161.28;5093421;28;20816;-77
2023/09/05 08:27:28;;;;;;;11.80;10.60;;;;;;;19.28;95.67;95156.75;5096737;28;20507;-77
2023/09/05 08:29:56;;;;;;;10.93;9.83;;;;;;;19.40;95.07;95151.84;5096510;28;20581;-78
2023/09/05 08:32:25;;;;;;;12.90;11.20;;;;;;;19.76;93.85;95155.56;5096884;28;20958;-77
2023/09/05 08:34:51;;;;;;;14.67;10.50;;;;;;;20.07;90.46;95157.28;5042838;28;20443;-77
2023/09/05 08:37:19;;;;;;;11.70;10.50;;;;;;;20.11;89.58;95159.41;5096177;28;20451;-77
2023/09/05 08:39:46;;;;;;;11.20;10.17;;;;;;;20.16;89.31;95160.69;5036952;28;20438;-77
2023/09/05 08:42:13;;;;;;;10.90;9.80;;;;;;;20.05;89.21;95153.97;5081166;28;20434;-77
2023/09/05 08:44:42;;;;;;;10.43;9.20;;;;;;;20.04;88.50;95157.66;5074762;28;20432;-78
2023/09/05 08:47:09;;;;;;;9.97;9.07;;;;;;;19.98;86.79;95163.72;5075254;28;20487;-78
2023/09/05 08:49:38;;;;;;;12.20;9.63;;;;;;;19.91;86.53;95160.09;5077290;28;20856;-78
2023/09/05 08:52:07;;;;;;;13.20;9.27;;;;;;;19.87;90.79;95161.47;5075523;28;20472;-77
2023/09/05 08:54:34;;;;;;;14.50;10.63;;;;;;;19.97;88.56;95167.38;5080926;28;20455;-77
2023/09/05 08:57:03;;;;;;;12.07;10.23;;;;;;;20.03;88.37;95171.97;5096455;28;20445;-78
2023/09/05 08:59:31;;;;;;;10.37;9.47;;;;;;;19.99;88.99;95166.19;5096265;28;20451;-78
2023/09/05 09:01:59;;;;;;;10.30;8.17;;;;;;;20.04;85.87;95165.66;5043267;28;20445;-78
2023/09/05 09:04:26;;;;;;;8.27;7.57;;;;;;;20.12;84.38;95181.53;5095916;28;20439;-78
2023/09/05 09:06:57;;;;;;;12.03;7.30;;;;;;;20.23;83.45;95188.25;5095556;28;20443;-78
2023/09/05 09:09:35;;;;;;;8.20;7.40;;;;;;;20.27;83.39;95176.25;5094998;28;20487;-78
2023/09/05 09:12:02;;;;;;;9.87;8.37;;;;;;;20.37;82.30;95172.28;5094472;28;20484;-78
2023/09/05 09:14:32;;;;;;;11.57;7.20;;;;;;;20.62;80.33;95172.06;5042480;28;20480;-78
2023/09/05 09:17:01;;;;;;;12.40;8.20;;;;;;;20.84;82.02;95165.78;5094566;28;20437;-77
2023/09/05 09:19:29;;;;;;;10.07;7.63;;;;;;;21.13;81.00;95159.56;5094525;28;20503;-78
2023/09/05 09:22:01;;;;;;;12.97;7.20;;;;;;;21.18;77.31;95151.81;5094158;28;20493;-77
2023/09/05 09:24:33;;;;;;;8.03;7.23;;;;;;;21.38;75.92;95162.72;5094219;28;20441;-77
2023/09/05 09:27:02;;;;;;;8.03;6.70;;;;;;;21.20;75.47;95151.63;5094075;28;21026;-77
2023/09/05 09:29:30;;;;;;;8.03;7.10;;;;;;;21.13;77.77;95162.22;5093984;28;20478;-78
2023/09/05 09:32:00;;;;;;;8.20;6.33;;;;;;;21.31;74.59;95180.50;5093296;28;20945;-76
2023/09/05 09:34:27;;;;;;;7.80;7.00;;;;;;;21.27;74.31;95155.22;5091554;28;20485;-76
2023/09/05 09:36:54;;;;;;;6.97;6.07;;;;;;;21.54;72.26;95145.63;5022348;28;20952;-77
2023/09/05 09:39:22;;;;;;;7.23;6.47;;;;;;;21.73;72.99;95155.66;5072668;28;20442;-76
2023/09/05 09:41:49;;;;;;;6.47;5.97;;;;;;;21.69;74.69;95145.56;5083677;28;20478;-76
2023/09/05 09:44:26;;;;;;;7.87;6.70;;;;;;;21.88;73.76;95147.56;5094032;28;20519;-75
2023/09/05 09:46:53;;;;;;;10.07;6.57;;;;;;;22.02;73.40;95141.31;5082504;28;20466;-76
2023/09/05 09:49:20;;;;;;;9.63;6.67;;;;;;;22.04;72.21;95136.63;5095821;28;20429;-78
2023/09/05 09:51:53;;;;;;;6.93;6.33;;;;;;;22.11;72.38;95137.50;5082125;28;20459;-79
2023/09/05 09:54:29;;;;;;;6.57;5.90;;;;;;;22.16;72.15;95139.56;5092304;28;20472;-78
2023/09/05 09:56:59;;;;;;;7.10;6.40;;;;;;;22.32;71.55;95139.28;5093522;28;20450;-77
2023/09/05 09:59:33;;;;;;;8.90;6.93;;;;;;;22.50;70.99;95146.78;5093694;28;20481;-79
2023/09/05 10:02:01;;;;;;;11.30;6.33;;;;;;;22.64;68.25;95143.16;5093500;28;20520;-79
2023/09/05 10:04:29;;;;;;;6.17;5.67;;;;;;;22.67;65.32;95137.41;5093630;28;20444;-79
2023/09/05 10:06:57;;;;;;;5.70;5.00;;;;;;;22.42;63.51;95144.28;5093154;28;20912;-78
2023/09/05 10:09:25;;;;;;;6.30;5.70;;;;;;;22.44;65.43;95120.84;5057505;28;20429;-78
2023/09/05 10:11:54;;;;;;;5.73;5.23;;;;;;;22.41;66.07;95147.97;5093330;28;20859;-78
2023/09/05 10:14:22;;;;;;;13.70;6.70;;;;;;;22.45;68.06;95128.66;5093242;28;20444;-78
2023/09/05 10:16:50;;;;;;;15.90;5.80;;;;;;;22.27;65.44;95124.88;5040959;28;20449;-78
2023/09/05 10:19:18;;;;;;;5.63;5.23;;;;;;;22.33;65.63;95138.28;5093341;28;20445;-78
2023/09/05 10:21:47;;;;;;;5.67;5.17;;;;;;;22.23;65.32;95130.56;5041310;28;20442;-77
2023/09/05 10:24:15;;;;;;;5.70;5.20;;;;;;;22.16;65.63;95140.41;5092207;28;20502;-79
2023/09/05 10:26:44;;;;;;;6.73;5.80;;;;;;;22.27;67.23;95132.88;5040523;28;20446;-76
2023/09/05 10:29:32;;;;;;;6.10;5.53;;;;;;;22.47;65.51;95123.09;5040640;28;20425;-77
2023/09/05 10:31:59;;;;;;;6.33;5.83;;;;;;;22.52;66.20;95124.16;5010614;28;20465;-77
2023/09/05 10:34:31;;;;;;;7.40;5.50;;;;;;;22.51;66.81;95138.56;5010696;28;20932;-77
2023/09/05 10:37:00;;;;;;;6.67;5.70;;;;;;;22.44;65.30;95140.38;5010543;28;20444;-77
2023/09/05 10:39:32;;;;;;;5.73;4.93;;;;;;;22.48;66.03;95135.47;5010530;28;20445;-76
2023/09/05 10:42:01;;;;;;;8.20;4.73;;;;;;;22.43;64.32;95132.56;5010487;28;20439;-76
2023/09/05 10:44:30;;;;;;;4.77;4.37;;;;;;;22.55;64.32;95133.63;5010318;28;20443;-76
2023/09/05 10:47:27;;;;;;;6.63;5.60;;;;;;;22.79;64.11;95135.00;5009725;28;20446;-76
2023/09/05 10:50:00;;;;;;;6.20;4.93;;;;;;;22.66;62.81;95130.41;5010112;28;20485;-76
2023/09/05 10:52:29;;;;;;;5.47;4.33;;;;;;;22.59;62.28;95129.56;4961444;28;20486;-77
2023/09/05 10:54:57;;;;;;;8.53;5.30;;;;;;;22.48;63.72;95130.09;5010494;28;20445;-76
2023/09/05 10:57:36;;;;;;;5.60;5.10;;;;;;;22.49;62.85;95140.59;5010418;28;20481;-77
2023/09/05 11:00:26;;;;;;;6.80;4.70;;;;;;;22.57;62.81;95126.28;5010231;28;20445;-76
2023/09/05 11:02:55;;;;;;;5.03;4.63;;;;;;;22.62;62.74;95129.16;5009730;28;20482;-77
2023/09/05 11:05:26;;;;;;;7.43;5.90;;;;;;;22.62;63.12;95129.16;5010291;28;20532;-76
2023/09/05 11:07:54;;;;;;;8.00;5.07;;;;;;;22.76;63.27;95132.72;5009896;28;20445;-77
2023/09/05 11:10:26;;;;;;;6.40;5.80;;;;;;;22.84;62.51;95132.56;5092097;28;20485;-77
2023/09/05 11:12:54;;;;;;;8.70;5.07;;;;;;;22.86;61.68;95128.69;5092104;28;20449;-76
2023/09/05 11:15:30;;;;;;;5.27;4.37;;;;;;;22.91;59.79;95117.38;5091946;28;20437;-77
2023/09/05 11:18:00;;;;;;;5.23;4.83;;;;;;;22.93;62.00;95123.38;5092006;28;20881;-77
2023/09/05 11:20:39;;;;;;;12.03;5.03;;;;;;;22.82;60.26;95122.06;5084583;28;20443;-76
2023/09/05 11:23:13;;;;;;;8.90;5.33;;;;;;;22.63;60.71;95119.28;5071398;28;20766;-76
2023/09/05 11:25:45;;;;;;;8.73;6.00;;;;;;;22.63;61.44;95125.47;5072648;28;20529;-76